Time;durP1;ratioP1;P1;durP2;ratioP2;P2;SDS_P1;SDS_P2;PMS_P1;PMS_P2;Temp;Humidity;BMP_temperature;BMP_pressure;BME280_temperature;BME280_humidity;BME280_pressure;Samples;Min_cycle;Max_cycle;Signal;HPM_P1;HPM_P2
2021/01/06 00:01:16;;;;;;;47.38;24.75;;;;;;;4.24;84.62;99987.84;5107461;28;20102;-68
2021/01/06 00:03:41;;;;;;;49.70;24.48;;;;;;;4.22;84.70;99986.63;5108012;28;20043;-67
2021/01/06 00:06:13;;;;;;;47.70;25.33;;;;;;;4.22;85.18;99989.41;5111877;28;20314;-68
2021/01/06 00:08:42;;;;;;;49.80;25.80;;;;;;;4.20;85.18;99984.22;5115721;28;20410;-67
2021/01/06 00:11:07;;;;;;;52.58;24.38;;;;;;;4.19;85.36;99988.16;5117191;28;20031;-67
2021/01/06 00:13:33;;;;;;;58.17;27.65;;;;;;;4.12;85.81;99976.91;5119923;28;20026;-68
2021/01/06 00:15:58;;;;;;;52.85;25.77;;;;;;;4.13;86.03;99980.50;5119167;28;20094;-60
2021/01/06 00:18:26;;;;;;;51.47;25.02;;;;;;;4.09;86.28;99979.59;5118637;27;20020;-64
2021/01/06 00:20:52;;;;;;;59.33;28.85;;;;;;;4.13;86.21;99959.06;5119497;28;20026;-67
2021/01/06 00:23:18;;;;;;;62.03;27.48;;;;;;;4.15;86.62;99969.81;5119550;28;20204;-67
2021/01/06 00:25:44;;;;;;;61.03;28.95;;;;;;;4.13;86.62;99972.97;5112141;28;20020;-66
2021/01/06 00:28:12;;;;;;;60.33;27.88;;;;;;;4.16;86.49;99974.19;5119808;28;20020;-67
2021/01/06 00:30:41;;;;;;;59.20;26.90;;;;;;;4.14;85.67;99973.75;5119364;28;20107;-66
2021/01/06 00:33:09;;;;;;;57.53;28.35;;;;;;;4.08;86.08;99962.09;5119029;28;20068;-63
2021/01/06 00:35:35;;;;;;;55.83;27.88;;;;;;;4.10;86.25;99970.88;5119525;28;20038;-67
2021/01/06 00:38:01;;;;;;;58.47;26.58;;;;;;;4.05;86.95;99971.19;5119033;28;20027;-62
2021/01/06 00:40:30;;;;;;;59.63;28.88;;;;;;;4.09;86.81;99974.03;5119469;27;20433;-66
2021/01/06 00:43:00;;;;;;;60.80;27.38;;;;;;;4.04;86.24;99975.94;5119063;28;20020;-67
2021/01/06 00:45:26;;;;;;;64.95;28.45;;;;;;;3.98;86.85;99980.22;5118950;28;20020;-67
2021/01/06 00:47:52;;;;;;;64.63;27.30;;;;;;;4.00;87.28;99974.28;5118899;28;20031;-66
2021/01/06 00:50:23;;;;;;;58.85;27.77;;;;;;;4.09;86.45;99971.25;5119133;28;20047;-63
2021/01/06 00:52:49;;;;;;;61.17;27.73;;;;;;;4.04;86.44;99975.16;5118976;28;20307;-60
2021/01/06 00:55:14;;;;;;;66.38;29.23;;;;;;;4.03;86.89;99973.53;5118237;28;20039;-65
2021/01/06 00:57:40;;;;;;;64.78;29.55;;;;;;;4.04;86.69;99981.50;5109012;28;20414;-67
2021/01/06 01:00:09;;;;;;;67.93;29.98;;;;;;;4.06;86.18;99977.56;5114048;28;20024;-67
2021/01/06 01:02:35;;;;;;;66.18;29.83;;;;;;;4.02;87.03;99963.59;5104755;28;20349;-66
2021/01/06 01:05:00;;;;;;;66.85;29.65;;;;;;;3.98;86.39;99960.75;5112245;28;20031;-67
2021/01/06 01:07:26;;;;;;;60.97;30.00;;;;;;;3.95;87.54;99949.56;5116465;28;20368;-66
2021/01/06 01:09:52;;;;;;;62.05;28.95;;;;;;;4.04;86.69;99948.16;5118808;28;20284;-63
2021/01/06 01:12:17;;;;;;;65.90;29.95;;;;;;;4.03;86.51;99963.22;5117556;28;20114;-67
2021/01/06 01:14:43;;;;;;;67.57;29.27;;;;;;;3.99;86.98;99954.00;5118548;28;20095;-64
2021/01/06 01:17:09;;;;;;;68.90;31.02;;;;;;;3.94;86.79;99947.97;5115914;28;20031;-60
2021/01/06 01:19:34;;;;;;;68.22;29.27;;;;;;;3.87;87.89;99945.84;5118304;28;20019;-61
2021/01/06 01:21:59;;;;;;;67.55;29.60;;;;;;;3.89;88.12;99940.72;5117827;28;20030;-67
2021/01/06 01:24:25;;;;;;;72.85;31.35;;;;;;;3.85;88.48;99933.50;5117885;28;20031;-63
2021/01/06 01:26:53;;;;;;;73.90;32.13;;;;;;;3.93;88.26;99924.91;5118459;28;20023;-66
2021/01/06 01:29:19;;;;;;;69.40;29.65;;;;;;;3.91;87.98;99927.25;5117988;28;20070;-62
2021/01/06 01:31:46;;;;;;;68.78;31.30;;;;;;;3.90;88.09;99925.66;5108698;28;20462;-61
2021/01/06 01:34:12;;;;;;;64.30;29.27;;;;;;;3.85;88.74;99917.63;5118214;28;20024;-63
2021/01/06 01:36:38;;;;;;;72.60;28.95;;;;;;;3.97;88.17;99919.41;5118202;28;20035;-62
2021/01/06 01:39:04;;;;;;;73.90;30.48;;;;;;;3.91;88.46;99907.78;5117964;28;20022;-62
2021/01/06 01:41:31;;;;;;;75.45;31.60;;;;;;;3.96;88.47;99917.81;5118099;28;20019;-61
2021/01/06 01:43:56;;;;;;;73.32;31.60;;;;;;;3.90;88.77;99911.75;5116778;28;20110;-63
2021/01/06 01:46:28;;;;;;;75.03;31.33;;;;;;;3.89;88.56;99912.94;5112288;28;20098;-66
2021/01/06 01:48:53;;;;;;;70.97;30.10;;;;;;;3.91;89.08;99916.13;5117837;28;20121;-62
2021/01/06 01:51:39;;;;;;;68.72;31.30;;;;;;;3.95;88.80;99908.66;5118065;28;20106;-62
2021/01/06 01:54:07;;;;;;;74.20;31.60;;;;;;;4.02;88.63;99924.66;5117950;28;20023;-64
2021/01/06 01:56:36;;;;;;;72.25;32.17;;;;;;;3.99;88.60;99923.44;5117803;28;20027;-61
2021/01/06 01:59:06;;;;;;;82.03;32.60;;;;;;;3.94;88.61;99909.03;5117513;28;20031;-63
2021/01/06 02:01:32;;;;;;;72.93;32.40;;;;;;;3.85;89.46;99912.06;5117654;27;20062;-64
2021/01/06 02:04:05;;;;;;;71.72;29.67;;;;;;;3.89;89.51;99912.13;5117555;28;20028;-62
2021/01/06 02:06:37;;;;;;;73.55;32.25;;;;;;;3.90;89.85;99895.06;5117524;28;20035;-60
2021/01/06 02:09:13;;;;;;;79.50;32.65;;;;;;;3.88;89.51;99907.75;5117377;28;20023;-62
2021/01/06 02:11:42;;;;;;;79.85;33.92;;;;;;;3.94;89.17;99884.81;5117350;28;20372;-61
2021/01/06 02:14:21;;;;;;;76.75;30.98;;;;;;;3.91;89.59;99893.91;5117338;28;20015;-62
2021/01/06 02:17:04;;;;;;;74.35;32.05;;;;;;;3.91;89.81;99884.75;5114358;28;20066;-62
2021/01/06 02:19:33;;;;;;;77.18;31.75;;;;;;;3.90;89.68;99886.72;5103845;28;20102;-64
2021/01/06 02:21:59;;;;;;;76.00;32.72;;;;;;;3.84;90.23;99891.00;5117252;28;20020;-66
2021/01/06 02:24:25;;;;;;;71.63;31.60;;;;;;;3.82;90.61;99879.41;5117102;28;20027;-67
2021/01/06 02:26:50;;;;;;;79.90;34.85;;;;;;;3.81;90.48;99888.13;5117015;28;20023;-67
2021/01/06 02:29:17;;;;;;;77.85;31.90;;;;;;;3.85;90.91;99873.13;5117055;28;20319;-66
2021/01/06 02:31:43;;;;;;;81.10;32.63;;;;;;;3.93;89.70;99869.31;5116864;28;20051;-65
2021/01/06 02:34:09;;;;;;;81.05;34.40;;;;;;;3.94;90.05;99867.31;5116822;28;20365;-66
2021/01/06 02:36:36;;;;;;;74.30;33.70;;;;;;;3.94;89.56;99870.91;5117478;28;20080;-60
2021/01/06 02:39:04;;;;;;;85.53;35.38;;;;;;;3.90;89.89;99885.91;5117148;28;20306;-61
2021/01/06 02:41:30;;;;;;;72.88;32.75;;;;;;;3.84;89.84;99863.19;5116541;28;20030;-61
2021/01/06 02:43:55;;;;;;;88.80;36.65;;;;;;;3.86;90.58;99863.63;5116858;28;20024;-61
2021/01/06 02:46:21;;;;;;;86.30;34.78;;;;;;;3.89;89.93;99864.84;5116642;28;20024;-60
2021/01/06 02:48:47;;;;;;;70.40;32.63;;;;;;;3.86;89.80;99877.53;5116902;28;20051;-61
2021/01/06 02:51:17;;;;;;;78.38;34.67;;;;;;;3.84;90.11;99868.75;5116920;28;20049;-67
2021/01/06 02:53:52;;;;;;;71.82;33.08;;;;;;;3.88;89.71;99858.50;5116869;28;20027;-67
2021/01/06 02:56:20;;;;;;;85.72;39.15;;;;;;;3.92;89.46;99851.00;5116486;28;20103;-62
2021/01/06 02:58:47;;;;;;;77.07;35.38;;;;;;;3.87;90.15;99848.53;5116846;28;20023;-66
2021/01/06 03:01:16;;;;;;;85.95;35.17;;;;;;;3.93;89.54;99846.25;5116228;28;20103;-66
2021/01/06 03:03:41;;;;;;;70.28;34.20;;;;;;;3.84;90.60;99840.94;5116379;28;20077;-61
2021/01/06 03:06:15;;;;;;;72.75;34.53;;;;;;;3.87;90.22;99842.19;5116490;28;20027;-67
2021/01/06 03:08:40;;;;;;;74.65;35.15;;;;;;;3.85;89.68;99834.22;5116302;28;20032;-67
2021/01/06 03:11:08;;;;;;;75.30;34.55;;;;;;;3.87;89.96;99833.84;5116329;28;20089;-66
2021/01/06 03:13:33;;;;;;;67.35;33.33;;;;;;;3.89;89.67;99828.72;5116336;28;20016;-64
2021/01/06 03:16:00;;;;;;;64.88;32.47;;;;;;;3.83;90.11;99841.28;5116098;28;20034;-66
2021/01/06 03:18:25;;;;;;;73.75;33.22;;;;;;;3.83;89.56;99832.94;5116582;28;20076;-64
2021/01/06 03:20:55;;;;;;;73.88;34.75;;;;;;;3.81;90.12;99838.88;5116260;28;20110;-63
2021/01/06 03:23:28;;;;;;;70.80;33.97;;;;;;;3.94;89.75;99836.75;5116125;28;20020;-61
2021/01/06 03:25:56;;;;;;;70.85;31.70;;;;;;;3.89;90.14;99837.84;5101939;28;20027;-66
2021/01/06 03:28:22;;;;;;;67.15;33.03;;;;;;;3.93;89.24;99822.03;5116355;28;20030;-66
2021/01/06 03:30:49;;;;;;;61.92;30.27;;;;;;;3.91;89.68;99820.81;5115805;28;20158;-67
2021/01/06 03:33:22;;;;;;;71.03;32.17;;;;;;;3.89;89.83;99832.28;5116000;28;20054;-64
2021/01/06 03:35:55;;;;;;;66.45;31.65;;;;;;;3.99;89.53;99817.75;5116068;28;20019;-64
2021/01/06 03:38:34;;;;;;;77.32;35.53;;;;;;;3.97;89.73;99828.44;5115939;28;20054;-64
2021/01/06 03:41:01;;;;;;;68.93;32.53;;;;;;;3.96;89.65;99837.16;5115742;28;20027;-62
2021/01/06 03:43:30;;;;;;;66.53;31.65;;;;;;;3.92;89.82;99823.22;5115855;28;20024;-63
2021/01/06 03:46:04;;;;;;;61.58;30.77;;;;;;;3.92;89.83;99820.44;5115376;28;20028;-66
2021/01/06 03:48:47;;;;;;;61.17;31.90;;;;;;;3.92;89.60;99827.97;5115823;28;20020;-61
2021/01/06 03:51:49;;;;;;;63.85;31.17;;;;;;;3.97;89.64;99825.66;5115853;28;20024;-66
2021/01/06 03:54:22;;;;;;;99.60;49.45;;;;;;;3.96;89.37;99824.06;5115728;28;20076;-67
2021/01/06 03:56:50;;;;;;;79.20;40.53;;;;;;;3.95;88.61;99838.34;5115815;28;20035;-68
2021/01/06 03:59:22;;;;;;;76.07;35.10;;;;;;;3.90;89.08;99833.91;5115920;28;20036;-65
2021/01/06 04:02:10;;;;;;;100.35;46.33;;;;;;;3.87;89.58;99826.31;5115622;28;20045;-61
2021/01/06 04:04:48;;;;;;;69.97;33.75;;;;;;;3.89;89.00;99810.06;5115914;28;20027;-67
2021/01/06 04:07:22;;;;;;;65.90;31.25;;;;;;;3.93;88.79;99796.22;5102370;28;20019;-66
2021/01/06 04:10:31;;;;;;;76.25;36.30;;;;;;;3.97;88.58;99786.75;5116156;28;20415;-65
2021/01/06 04:12:57;;;;;;;79.95;40.17;;;;;;;3.95;88.82;99788.28;5099748;28;20492;-68
2021/01/06 04:15:23;;;;;;;59.70;30.60;;;;;;;3.99;88.60;99794.72;5115523;28;20426;-66
2021/01/06 04:17:51;;;;;;;72.03;34.75;;;;;;;4.01;88.54;99787.59;5115786;28;20127;-61
2021/01/06 04:20:36;;;;;;;62.00;29.65;;;;;;;4.02;88.10;99791.97;5115422;28;20030;-66
2021/01/06 04:23:11;;;;;;;68.72;32.42;;;;;;;3.96;88.34;99795.47;5115304;28;20027;-59
2021/01/06 04:25:42;;;;;;;66.45;30.33;;;;;;;3.92;88.77;99800.97;5115545;28;20024;-68
2021/01/06 04:28:28;;;;;;;61.55;29.75;;;;;;;3.88;88.86;99813.22;5114557;28;20024;-65
2021/01/06 04:30:57;;;;;;;63.78;29.60;;;;;;;3.93;88.49;99804.53;5111216;28;20142;-68
2021/01/06 04:33:34;;;;;;;66.28;29.77;;;;;;;3.91;88.69;99816.03;5100676;28;20040;-67
2021/01/06 04:36:05;;;;;;;66.38;31.08;;;;;;;3.94;88.64;99826.41;5095893;28;20039;-64
2021/01/06 04:38:40;;;;;;;63.97;28.73;;;;;;;3.88;88.32;99816.78;5095807;28;20319;-60
2021/01/06 04:41:24;;;;;;;63.85;29.40;;;;;;;3.81;89.24;99816.66;5104816;28;20063;-66
2021/01/06 04:44:25;;;;;;;64.00;27.90;;;;;;;3.77;89.32;99814.97;5102280;28;20027;-67
2021/01/06 04:46:59;;;;;;;61.85;28.60;;;;;;;3.81;89.10;99810.28;5105279;28;20028;-61
2021/01/06 04:49:28;;;;;;;64.40;27.75;;;;;;;3.88;88.14;99810.44;5107710;28;20020;-64
2021/01/06 04:52:02;;;;;;;64.50;28.70;;;;;;;3.81;88.47;99799.97;5100937;28;20026;-67
2021/01/06 04:54:43;;;;;;;63.75;27.70;;;;;;;3.83;88.83;99797.63;5101007;28;20099;-62
2021/01/06 04:57:27;;;;;;;61.55;27.55;;;;;;;3.80;88.72;99803.91;5101679;28;20039;-67
2021/01/06 05:00:25;;;;;;;60.67;27.15;;;;;;;3.79;88.60;99791.19;5109948;28;20031;-70
2021/01/06 05:03:08;;;;;;;58.70;26.02;;;;;;;3.74;88.88;99794.28;5109879;28;20153;-67
2021/01/06 05:05:55;;;;;;;59.78;28.90;;;;;;;3.76;88.98;99797.50;5105154;28;20106;-61
2021/01/06 05:08:40;;;;;;;60.45;28.23;;;;;;;3.77;89.40;99790.78;5106366;28;20092;-67
2021/01/06 05:11:16;;;;;;;63.80;28.70;;;;;;;3.79;88.45;99780.09;5102518;28;20038;-67
2021/01/06 05:13:55;;;;;;;61.47;27.33;;;;;;;3.80;89.12;99794.78;5109338;28;20318;-66
2021/01/06 05:16:30;;;;;;;64.35;28.17;;;;;;;3.75;88.74;99795.91;5099767;28;20040;-66
2021/01/06 05:18:55;;;;;;;63.38;26.58;;;;;;;3.75;88.53;99801.47;5106706;28;20023;-61
2021/01/06 05:21:25;;;;;;;60.10;28.42;;;;;;;3.70;89.40;99793.44;5108394;28;20032;-65
2021/01/06 05:23:55;;;;;;;62.08;27.00;;;;;;;3.76;90.72;99799.47;5109807;28;20019;-66
2021/01/06 05:26:20;;;;;;;63.03;27.40;;;;;;;3.75;89.94;99798.69;5109507;28;20361;-67
2021/01/06 05:28:50;;;;;;;61.67;27.92;;;;;;;3.76;88.96;99797.50;5109122;28;20024;-67
2021/01/06 05:31:16;;;;;;;55.65;26.42;;;;;;;3.79;89.11;99802.31;5104441;28;20038;-59
2021/01/06 05:33:48;;;;;;;57.88;25.58;;;;;;;3.76;88.97;99825.31;5101123;28;20339;-62
2021/01/06 05:36:31;;;;;;;63.00;28.70;;;;;;;3.75;89.29;99822.91;5102856;28;20104;-66
2021/01/06 05:39:09;;;;;;;55.75;27.48;;;;;;;3.78;88.83;99822.94;5098739;28;20035;-66
2021/01/06 05:41:35;;;;;;;56.42;27.05;;;;;;;3.78;89.24;99827.72;5110508;28;20031;-66
2021/01/06 05:44:00;;;;;;;55.85;27.30;;;;;;;3.78;88.86;99827.72;5103779;28;20315;-65
2021/01/06 05:46:30;;;;;;;58.45;26.67;;;;;;;3.82;89.01;99823.81;5102805;28;20023;-67
2021/01/06 05:49:00;;;;;;;57.05;26.30;;;;;;;3.85;88.64;99817.53;5101548;28;20453;-67
2021/01/06 05:51:33;;;;;;;58.30;26.00;;;;;;;3.84;88.19;99820.69;5107181;28;20480;-68
2021/01/06 05:54:21;;;;;;;54.00;25.15;;;;;;;3.86;88.47;99815.56;5100942;28;20042;-66
2021/01/06 05:56:52;;;;;;;50.75;23.73;;;;;;;3.84;87.86;99804.00;5104583;28;20020;-60
2021/01/06 05:59:37;;;;;;;53.15;25.42;;;;;;;3.80;88.27;99798.38;5100963;28;20062;-65
2021/01/06 06:02:21;;;;;;;53.80;25.98;;;;;;;3.83;88.11;99797.63;5100714;28;20023;-67
2021/01/06 06:05:30;;;;;;;55.90;26.42;;;;;;;3.82;88.38;99800.78;5101086;28;20032;-67
2021/01/06 06:08:08;;;;;;;52.47;26.90;;;;;;;3.83;88.75;99805.97;5093938;28;20039;-66
2021/01/06 06:10:53;;;;;;;55.60;23.65;;;;;;;3.83;88.10;99792.06;5100438;28;20024;-67
2021/01/06 06:13:42;;;;;;;56.63;24.70;;;;;;;3.79;88.73;99807.06;5101227;28;20162;-65
2021/01/06 06:16:34;;;;;;;53.20;24.25;;;;;;;3.84;88.85;99799.25;5100615;28;20024;-66
2021/01/06 06:19:21;;;;;;;55.38;24.83;;;;;;;3.86;88.79;99796.09;5103797;28;20049;-67
2021/01/06 06:22:06;;;;;;;55.72;25.58;;;;;;;3.88;88.46;99805.66;5100854;28;20358;-67
2021/01/06 06:25:18;;;;;;;57.75;24.98;;;;;;;3.88;88.15;99799.31;5106444;28;20106;-67
2021/01/06 06:28:20;;;;;;;51.00;25.42;;;;;;;3.86;88.34;99805.25;5110579;27;20043;-66
2021/01/06 06:31:14;;;;;;;51.35;25.48;;;;;;;3.83;88.40;99811.53;5101753;28;20031;-66
2021/01/06 06:33:40;;;;;;;56.50;26.77;;;;;;;3.82;88.43;99821.03;5100095;28;20051;-66
2021/01/06 06:36:18;;;;;;;52.17;26.00;;;;;;;3.86;88.65;99826.69;5103384;28;20019;-63
2021/01/06 06:38:46;;;;;;;52.63;23.70;;;;;;;3.85;88.45;99830.63;5100374;28;20318;-66
2021/01/06 06:41:20;;;;;;;51.70;23.85;;;;;;;3.82;88.15;99851.63;5112899;28;20024;-67
2021/01/06 06:43:48;;;;;;;51.63;25.38;;;;;;;3.80;88.38;99842.84;5116850;28;20137;-67
2021/01/06 06:46:38;;;;;;;48.55;23.25;;;;;;;3.76;88.32;99853.09;5116821;27;20096;-66
2021/01/06 06:49:06;;;;;;;54.85;25.02;;;;;;;3.77;88.20;99851.94;5116737;28;20069;-60
2021/01/06 06:51:55;;;;;;;45.20;22.83;;;;;;;3.78;88.59;99863.84;5115675;28;20100;-60
2021/01/06 06:54:44;;;;;;;54.83;24.75;;;;;;;3.76;88.73;99880.91;5116876;28;20019;-60
2021/01/06 06:57:23;;;;;;;49.70;22.83;;;;;;;3.79;89.08;99885.72;5116634;28;20102;-60
2021/01/06 06:59:59;;;;;;;48.50;24.05;;;;;;;3.78;89.26;99863.84;5116480;28;20023;-60
2021/01/06 07:02:25;;;;;;;52.50;25.17;;;;;;;3.77;89.18;99871.38;5116418;28;20081;-67
2021/01/06 07:04:53;;;;;;;57.15;24.67;;;;;;;3.76;89.18;99867.00;5116494;28;20051;-67
2021/01/06 07:07:43;;;;;;;51.17;25.95;;;;;;;3.77;88.88;99865.81;5116579;28;20024;-56
2021/01/06 07:10:17;;;;;;;58.30;27.45;;;;;;;3.78;88.80;99861.88;5116255;28;20072;-65
2021/01/06 07:12:43;;;;;;;69.40;34.35;;;;;;;3.78;89.04;99867.44;5116435;28;20030;-66
2021/01/06 07:15:39;;;;;;;72.40;34.88;;;;;;;3.78;89.07;99873.00;5116045;28;20031;-65
2021/01/06 07:18:33;;;;;;;62.03;30.67;;;;;;;3.77;89.14;99871.38;5115443;28;20380;-66
2021/01/06 07:21:18;;;;;;;56.63;27.02;;;;;;;3.78;89.63;99878.56;5115863;28;20383;-57
2021/01/06 07:23:55;;;;;;;52.65;26.38;;;;;;;3.77;89.44;99868.59;5116197;28;20426;-63
2021/01/06 07:26:24;;;;;;;56.00;27.35;;;;;;;3.81;89.43;99868.66;5116073;28;20032;-67
2021/01/06 07:29:01;;;;;;;50.58;24.35;;;;;;;3.81;89.42;99865.88;5116046;28;20032;-66
2021/01/06 07:31:31;;;;;;;54.25;28.55;;;;;;;3.82;89.02;99868.28;5116365;28;20024;-66
2021/01/06 07:34:02;;;;;;;56.25;26.40;;;;;;;3.85;89.30;99873.13;5115679;28;20075;-67
2021/01/06 07:36:34;;;;;;;55.17;26.13;;;;;;;3.84;89.33;99865.16;5116276;28;20393;-67
2021/01/06 07:39:01;;;;;;;54.08;26.50;;;;;;;3.82;88.88;99868.28;5115708;28;20314;-66
2021/01/06 07:41:28;;;;;;;55.70;25.80;;;;;;;3.86;89.62;99869.19;5116093;28;20028;-67
2021/01/06 07:44:16;;;;;;;57.88;26.38;;;;;;;3.85;89.09;99867.59;5115935;28;20019;-65
2021/01/06 07:46:47;;;;;;;51.55;24.98;;;;;;;3.83;89.23;99861.56;5116042;28;20370;-67
2021/01/06 07:49:32;;;;;;;53.70;26.17;;;;;;;3.83;89.34;99869.91;5114992;28;20020;-68
2021/01/06 07:52:15;;;;;;;52.17;26.73;;;;;;;3.82;89.72;99879.41;5115610;28;20084;-65
2021/01/06 07:54:50;;;;;;;50.58;24.40;;;;;;;3.83;89.61;99874.66;5115928;28;20310;-66
2021/01/06 07:57:35;;;;;;;47.90;22.38;;;;;;;3.85;90.10;99869.56;5115891;28;20020;-66
2021/01/06 08:00:07;;;;;;;48.05;23.70;;;;;;;3.82;89.77;99876.63;5115270;28;20081;-67
2021/01/06 08:02:38;;;;;;;49.95;24.70;;;;;;;3.80;90.07;99872.63;5115873;28;20109;-61
2021/01/06 08:05:22;;;;;;;55.60;26.23;;;;;;;3.83;90.11;99864.34;5115648;28;20406;-66
2021/01/06 08:07:48;;;;;;;47.42;24.23;;;;;;;3.81;90.33;99861.13;5115884;28;20062;-67
2021/01/06 08:10:33;;;;;;;47.38;24.13;;;;;;;3.81;90.14;99866.69;5114528;28;20055;-67
2021/01/06 08:13:13;;;;;;;42.88;22.83;;;;;;;3.79;90.02;99871.00;5115751;28;20028;-67
2021/01/06 08:15:39;;;;;;;45.88;23.25;;;;;;;3.79;90.33;99873.78;5114584;28;20034;-66
2021/01/06 08:18:31;;;;;;;53.00;24.38;;;;;;;3.81;90.72;99871.44;5115426;28;20027;-67
2021/01/06 08:21:08;;;;;;;53.22;25.90;;;;;;;3.84;91.52;99877.09;5102934;28;20019;-64
2021/01/06 08:23:44;;;;;;;59.67;25.88;;;;;;;3.87;91.33;99861.66;5115580;28;20479;-66
2021/01/06 08:26:22;;;;;;;47.97;22.35;;;;;;;3.96;91.58;99868.56;5115673;28;20027;-66
2021/01/06 08:28:48;;;;;;;47.03;23.83;;;;;;;4.01;91.10;99868.25;5115187;28;20035;-67
2021/01/06 08:31:19;;;;;;;45.55;22.73;;;;;;;3.97;90.70;99864.59;5115669;28;20021;-66
2021/01/06 08:33:53;;;;;;;43.47;22.92;;;;;;;3.98;90.83;99865.41;5119224;28;20039;-66
2021/01/06 08:36:25;;;;;;;43.47;22.98;;;;;;;4.00;90.95;99852.72;5119740;28;20055;-67
2021/01/06 08:39:20;;;;;;;44.58;25.65;;;;;;;4.04;91.26;99847.22;5119407;28;20040;-59
2021/01/06 08:41:47;;;;;;;45.22;24.65;;;;;;;4.08;91.32;99831.41;5106225;28;20094;-66
2021/01/06 08:44:28;;;;;;;45.03;24.42;;;;;;;4.09;91.31;99837.75;5118840;28;20022;-67
2021/01/06 08:46:56;;;;;;;41.33;22.52;;;;;;;4.11;90.84;99815.94;5106367;28;20031;-67
2021/01/06 08:49:22;;;;;;;41.38;21.23;;;;;;;4.16;90.97;99810.88;5119258;28;20368;-66
2021/01/06 08:51:48;;;;;;;39.40;20.98;;;;;;;4.19;91.58;99828.81;5119003;28;20015;-66
2021/01/06 08:54:16;;;;;;;42.38;21.33;;;;;;;4.19;91.17;99826.81;5119433;28;20020;-67
2021/01/06 08:56:42;;;;;;;38.03;20.77;;;;;;;4.24;91.02;99839.59;5118959;28;20020;-67
2021/01/06 08:59:25;;;;;;;40.85;20.90;;;;;;;4.25;91.08;99847.59;5118598;28;20102;-66
2021/01/06 09:01:54;;;;;;;46.83;24.67;;;;;;;4.28;91.37;99862.72;5118946;27;20415;-66
2021/01/06 09:04:35;;;;;;;47.63;24.40;;;;;;;4.29;90.88;99855.97;5118718;28;20059;-66
2021/01/06 09:07:03;;;;;;;48.60;25.13;;;;;;;4.31;90.96;99862.78;5118692;28;20026;-66
2021/01/06 09:09:42;;;;;;;49.55;27.05;;;;;;;4.33;91.28;99867.97;5118833;28;20365;-65
2021/01/06 09:12:26;;;;;;;46.05;23.45;;;;;;;4.35;91.60;99868.38;5118490;28;20349;-57
2021/01/06 09:14:55;;;;;;;50.83;24.67;;;;;;;4.38;91.30;99873.19;5118495;28;20076;-62
2021/01/06 09:17:34;;;;;;;48.92;23.63;;;;;;;4.41;91.61;99872.47;5118482;28;20425;-66
2021/01/06 09:20:12;;;;;;;45.65;24.77;;;;;;;4.45;91.56;99886.44;5118576;28;20102;-66
2021/01/06 09:22:39;;;;;;;47.63;26.65;;;;;;;4.48;91.43;99891.25;5118903;28;20036;-67
2021/01/06 09:25:05;;;;;;;41.75;24.90;;;;;;;4.49;91.30;99890.09;5118842;28;20276;-66
2021/01/06 09:27:34;;;;;;;53.25;31.58;;;;;;;4.52;91.65;99908.81;5117988;28;20457;-67
2021/01/06 09:30:02;;;;;;;63.13;33.20;;;;;;;4.55;91.51;99894.16;5118403;28;20055;-63
2021/01/06 09:32:35;;;;;;;61.15;37.03;;;;;;;4.58;91.61;99896.97;5118302;28;20327;-67
2021/01/06 09:35:07;;;;;;;95.07;36.63;;;;;;;4.62;91.04;99906.19;5118143;28;20024;-58
2021/01/06 09:37:35;;;;;;;81.10;32.92;;;;;;;4.64;91.10;99905.81;5118127;28;20031;-67
2021/01/06 09:40:19;;;;;;;47.20;25.48;;;;;;;4.69;91.40;99901.94;5118036;28;20023;-67
2021/01/06 09:42:49;;;;;;;42.13;23.17;;;;;;;4.73;91.34;99900.81;5117671;28;20028;-67
2021/01/06 09:45:25;;;;;;;46.15;24.52;;;;;;;4.75;91.30;99900.41;5117607;28;20016;-67
2021/01/06 09:47:56;;;;;;;41.42;23.65;;;;;;;4.77;91.03;99900.84;5118078;28;20073;-67
2021/01/06 09:50:25;;;;;;;35.50;20.98;;;;;;;4.79;91.23;99895.69;5118302;27;20115;-60
2021/01/06 09:52:53;;;;;;;33.17;20.92;;;;;;;4.83;91.14;99899.34;5117744;28;20023;-57
2021/01/06 09:55:22;;;;;;;34.22;20.83;;;;;;;4.87;90.60;99891.84;5117673;28;20023;-59
2021/01/06 09:57:55;;;;;;;76.63;43.08;;;;;;;4.86;90.58;99887.44;5117854;28;20441;-60
2021/01/06 10:00:21;;;;;;;105.43;69.35;;;;;;;4.88;90.17;99887.88;5117595;28;20027;-55
2021/01/06 10:02:49;;;;;;;51.75;33.22;;;;;;;4.91;90.04;99885.13;5117879;27;20103;-68
2021/01/06 10:05:17;;;;;;;35.72;20.80;;;;;;;4.91;90.23;99889.91;5117633;28;20015;-67
2021/01/06 10:07:56;;;;;;;44.38;26.40;;;;;;;4.93;90.25;99884.75;5117835;28;20320;-61
2021/01/06 10:10:29;;;;;;;49.78;26.58;;;;;;;4.92;90.26;99880.34;5117331;28;20481;-63
2021/01/06 10:13:13;;;;;;;49.13;28.15;;;;;;;4.97;90.50;99875.28;5117496;28;20106;-65
2021/01/06 10:16:32;;;;;;;54.13;29.70;;;;;;;5.00;90.52;99879.31;5117527;28;20022;-63
2021/01/06 10:19:16;;;;;;;90.13;47.08;;;;;;;5.08;90.42;99872.63;5074543;28;20035;-60
2021/01/06 10:21:54;;;;;;;115.53;60.70;;;;;;;5.10;89.99;99861.91;5109263;28;20073;-60
2021/01/06 10:24:32;;;;;;;80.70;42.90;;;;;;;5.09;90.22;99867.88;5104041;28;20019;-64
2021/01/06 10:27:25;;;;;;;60.40;33.00;;;;;;;5.11;90.54;99866.31;5117259;28;20035;-69
2021/01/06 10:29:53;;;;;;;56.00;29.77;;;;;;;5.12;90.68;99865.13;5097574;28;20036;-60
2021/01/06 10:32:30;;;;;;;58.55;34.15;;;;;;;5.15;91.15;99850.44;5116946;28;20532;-60
2021/01/06 10:35:33;;;;;;;60.63;37.20;;;;;;;5.20;90.96;99847.34;5117130;28;20027;-61
2021/01/06 10:38:13;;;;;;;46.63;27.30;;;;;;;5.30;91.09;99850.63;5084719;28;20448;-58
2021/01/06 10:40:43;;;;;;;53.88;30.77;;;;;;;5.44;91.53;99861.91;5116854;28;20032;-67
2021/01/06 10:43:39;;;;;;;44.22;27.17;;;;;;;5.69;92.72;99851.84;5116599;28;20022;-62
2021/01/06 10:46:43;;;;;;;49.80;25.90;;;;;;;5.88;91.60;99846.06;5116831;28;20027;-67
2021/01/06 10:49:17;;;;;;;40.03;21.02;;;;;;;6.12;91.47;99846.69;5116948;28;20027;-60
2021/01/06 10:51:56;;;;;;;49.13;27.48;;;;;;;6.36;90.70;99840.50;5116617;28;20024;-59
2021/01/06 10:54:43;;;;;;;44.67;22.23;;;;;;;6.58;89.28;99840.66;5116838;28;20024;-60
2021/01/06 10:57:15;;;;;;;41.92;23.80;;;;;;;6.74;88.34;99843.94;5116733;28;20028;-60
2021/01/06 11:00:00;;;;;;;40.75;22.48;;;;;;;6.88;87.46;99846.84;5116538;28;20472;-55
2021/01/06 11:02:50;;;;;;;28.13;17.40;;;;;;;7.07;87.03;99846.50;5116687;28;20036;-66
2021/01/06 11:05:22;;;;;;;34.50;18.75;;;;;;;7.25;86.41;99841.00;5116230;28;20094;-61
2021/01/06 11:08:24;;;;;;;29.92;18.50;;;;;;;7.43;85.74;99829.88;5116706;28;20042;-60
2021/01/06 11:11:27;;;;;;;30.27;16.95;;;;;;;7.60;84.39;99834.72;5104564;28;20037;-69
2021/01/06 11:14:17;;;;;;;31.10;15.93;;;;;;;7.78;83.47;99833.94;5116165;28;20023;-60
2021/01/06 11:16:47;;;;;;;28.08;15.75;;;;;;;7.94;83.54;99824.00;5116395;28;20016;-60
2021/01/06 11:19:40;;;;;;;27.67;17.00;;;;;;;8.15;81.99;99825.19;5116206;28;20027;-60
2021/01/06 11:22:27;;;;;;;28.63;14.40;;;;;;;8.25;81.05;99816.00;5116092;28;20078;-60
2021/01/06 11:24:55;;;;;;;25.17;16.02;;;;;;;8.41;81.59;99813.59;5116516;28;20160;-61
2021/01/06 11:27:53;;;;;;;31.35;17.20;;;;;;;8.70;80.81;99817.13;5115848;28;20020;-68
2021/01/06 11:30:30;;;;;;;28.52;16.73;;;;;;;8.97;79.67;99823.06;5087238;28;20043;-69
2021/01/06 11:33:13;;;;;;;27.63;16.35;;;;;;;9.21;78.29;99818.56;5116175;28;20075;-69
2021/01/06 11:35:50;;;;;;;28.08;17.40;;;;;;;9.43;77.19;99822.06;5116342;28;20086;-58
2021/01/06 11:38:38;;;;;;;26.88;16.05;;;;;;;9.66;76.93;99822.34;5116197;28;20031;-67
2021/01/06 11:41:16;;;;;;;24.73;14.43;;;;;;;9.79;75.58;99822.66;5115576;28;20117;-68
2021/01/06 11:43:50;;;;;;;23.02;13.07;;;;;;;9.77;74.71;99823.06;5116015;28;20031;-67
2021/01/06 11:46:30;;;;;;;23.23;13.02;;;;;;;9.74;76.26;99820.28;5115716;28;20055;-67
2021/01/06 11:49:33;;;;;;;21.10;12.70;;;;;;;10.09;75.51;99822.03;5116107;28;20035;-68
2021/01/06 11:52:28;;;;;;;20.73;13.00;;;;;;;10.35;74.10;99812.22;5101437;28;20020;-67
2021/01/06 11:54:59;;;;;;;15.57;9.93;;;;;;;10.41;72.74;99810.56;5115674;28;20023;-66
2021/01/06 11:57:27;;;;;;;16.58;9.38;;;;;;;10.47;73.58;99814.53;5115828;28;20411;-68
2021/01/06 12:00:11;;;;;;;14.32;8.45;;;;;;;10.77;72.19;99819.44;5115896;28;20031;-64